Time;durP1;ratioP1;P1;durP2;ratioP2;P2;SDS_P1;SDS_P2;PMS_P1;PMS_P2;Temp;Humidity;BMP_temperature;BMP_pressure;BME280_temperature;BME280_humidity;BME280_pressure;Samples;Min_cycle;Max_cycle;Signal;HPM_P1;HPM_P2
2022/09/23 00:01:17;;;;;;;1.67;0.88;;;;;;;16.68;54.71;101342.09;5011554;28;20118;-76
2022/09/23 00:04:02;;;;;;;1.35;1.05;;;;;;;17.43;52.81;101342.56;5011639;28;20492;-75
2022/09/23 00:06:47;;;;;;;2.85;1.10;;;;;;;17.80;51.67;101344.13;5011117;28;20052;-75
2022/09/23 00:09:32;;;;;;;;;;;;;;;18.17;50.63;101338.47;5011483;28;20401;-76
2022/09/23 00:12:16;;;;;;;4.47;1.38;;;;;;;18.14;49.65;101344.66;5011168;28;20364;-75
2022/09/23 00:15:01;;;;;;;;;;;;;;;18.35;50.19;101345.25;5013741;28;20421;-75
2022/09/23 00:17:46;;;;;;;2.42;0.88;;;;;;;18.54;49.61;101344.63;5011067;28;19913;-75
2022/09/23 00:20:33;;;;;;;6.03;1.20;;;;;;;18.71;49.16;101347.84;5011044;28;20067;-75
2022/09/23 00:23:18;;;;;;;1.85;1.15;;;;;;;18.84;48.83;101350.53;5011003;28;20050;-75
2022/09/23 00:26:04;;;;;;;0.85;0.65;;;;;;;18.91;48.68;101347.91;5014041;28;20053;-75
2022/09/23 00:28:50;;;;;;;2.83;1.80;;;;;;;18.95;48.37;101346.03;5014652;28;20053;-75
2022/09/23 00:31:35;;;;;;;2.28;1.15;;;;;;;18.97;48.06;101346.50;5014399;28;20048;-75
2022/09/23 00:34:20;;;;;;;1.00;0.90;;;;;;;19.04;48.12;101346.69;5015456;28;20049;-75
2022/09/23 00:37:05;;;;;;;2.47;0.68;;;;;;;19.02;47.86;101332.44;5013617;28;20049;-77
2022/09/23 00:39:49;;;;;;;1.10;0.85;;;;;;;19.05;48.10;101337.25;5017729;28;20052;-77
2022/09/23 00:42:34;;;;;;;2.50;1.02;;;;;;;18.79;46.71;101332.31;5016223;28;20053;-77
2022/09/23 00:45:18;;;;;;;;;;;;;;;18.83;48.01;101329.63;5015573;28;20524;-77
2022/09/23 00:48:04;;;;;;;3.60;1.27;;;;;;;18.89;47.71;101333.72;5014973;28;19913;-77
2022/09/23 00:50:51;;;;;;;0.70;0.55;;;;;;;18.99;48.04;101333.19;5014583;28;20052;-76
2022/09/23 00:53:37;;;;;;;2.28;1.15;;;;;;;19.03;47.95;101334.06;5014639;28;20040;-77
2022/09/23 00:56:23;;;;;;;2.25;0.73;;;;;;;19.10;47.54;101328.69;5016101;28;20509;-76
2022/09/23 00:59:09;;;;;;;1.00;0.70;;;;;;;19.13;47.50;101325.25;5014466;28;20045;-77
2022/09/23 01:01:56;;;;;;;1.70;0.70;;;;;;;19.15;47.29;101325.66;5014465;28;20100;-77
2022/09/23 01:04:41;;;;;;;1.17;0.88;;;;;;;19.15;47.21;101320.16;5013051;28;20045;-77
2022/09/23 01:07:26;;;;;;;2.35;0.85;;;;;;;19.16;47.01;101319.00;5013985;28;20068;-77
2022/09/23 01:10:13;;;;;;;1.65;0.90;;;;;;;19.16;47.15;101311.53;5014533;28;20416;-76
2022/09/23 01:13:07;;;;;;;1.73;0.73;;;;;;;19.16;47.03;101314.28;5014800;28;20053;-75
2022/09/23 01:16:08;;;;;;;3.28;0.60;;;;;;;19.02;47.29;101302.13;5015648;28;20044;-76
2022/09/23 01:19:22;;;;;;;2.70;1.10;;;;;;;19.12;46.95;101310.66;5015311;28;20041;-76
2022/09/23 01:22:10;;;;;;;3.28;0.98;;;;;;;19.16;47.10;101300.50;5014336;28;20049;-76
2022/09/23 01:25:12;;;;;;;2.63;0.88;;;;;;;19.20;46.81;101311.59;5014387;28;20088;-77
2022/09/23 01:28:38;;;;;;;1.15;0.88;;;;;;;19.14;46.80;101308.34;5020746;28;20040;-76
2022/09/23 01:31:36;;;;;;;1.55;0.60;;;;;;;19.21;46.95;101302.97;5034063;28;20053;-77
2022/09/23 01:34:40;;;;;;;1.52;0.63;;;;;;;19.26;46.53;101304.66;5035904;28;20048;-76
2022/09/23 01:37:35;;;;;;;6.40;1.40;;;;;;;19.21;46.22;101307.69;5029812;28;20248;-77
2022/09/23 01:40:27;;;;;;;2.20;0.88;;;;;;;19.22;46.52;101299.06;5033641;28;20052;-75
2022/09/23 01:43:26;;;;;;;3.13;0.85;;;;;;;19.24;46.35;101295.97;5033864;28;20043;-76
2022/09/23 01:46:22;;;;;;;0.70;0.60;;;;;;;19.24;46.57;101295.97;5033801;28;20045;-77
2022/09/23 01:49:31;;;;;;;6.40;1.23;;;;;;;18.74;46.66;101300.28;5031787;28;20045;-76
2022/09/23 01:52:33;;;;;;;2.95;1.20;;;;;;;18.60;47.27;101290.84;5031947;28;20045;-75
2022/09/23 01:55:25;;;;;;;2.15;0.70;;;;;;;18.86;47.49;101285.59;5034997;28;20527;-76
2022/09/23 01:58:26;;;;;;;2.78;0.98;;;;;;;19.04;46.79;101284.09;5030333;28;20397;-76
2022/09/23 02:01:18;;;;;;;3.45;1.00;;;;;;;19.12;46.45;101279.53;5013641;28;20057;-75
2022/09/23 02:04:08;;;;;;;1.52;0.80;;;;;;;19.14;46.66;101285.50;5013523;28;20049;-75
2022/09/23 02:07:10;;;;;;;2.28;1.58;;;;;;;19.16;45.97;101286.72;5013477;28;20053;-76
2022/09/23 02:10:04;;;;;;;1.92;0.90;;;;;;;19.17;46.28;101285.56;5028263;28;20088;-76
2022/09/23 02:12:53;;;;;;;2.43;1.00;;;;;;;19.09;46.38;101292.09;5013250;28;20125;-76
2022/09/23 02:15:44;;;;;;;3.70;0.77;;;;;;;18.99;46.35;101283.56;5013192;28;20524;-76
2022/09/23 02:18:37;;;;;;;1.70;0.80;;;;;;;19.05;46.36;101287.63;5013046;28;20037;-75
2022/09/23 02:21:26;;;;;;;1.05;0.88;;;;;;;19.00;46.09;101279.63;4993599;28;20242;-76
2022/09/23 02:24:18;;;;;;;4.45;0.95;;;;;;;18.80;44.08;101276.00;4995922;28;20053;-76
2022/09/23 02:27:21;;;;;;;6.20;1.33;;;;;;;18.15;44.50;101285.72;4993518;28;20057;-76
2022/09/23 02:30:12;;;;;;;2.92;1.50;;;;;;;17.51;45.69;101273.69;5015361;28;20059;-76
2022/09/23 02:33:25;;;;;;;3.33;1.15;;;;;;;16.99;49.76;101275.59;5032755;28;20420;-76
2022/09/23 02:36:38;;;;;;;1.45;0.80;;;;;;;17.81;49.33;101267.88;5032599;28;20511;-75
2022/09/23 02:39:30;;;;;;;1.92;0.65;;;;;;;18.29;48.44;101275.06;5032121;28;20290;-76
2022/09/23 02:42:20;;;;;;;1.90;0.80;;;;;;;18.50;47.85;101274.81;5012813;28;20057;-75
2022/09/23 02:45:05;;;;;;;4.30;0.73;;;;;;;18.67;47.40;101266.25;5012671;28;20045;-76
2022/09/23 02:47:54;;;;;;;;;;;;;;;18.45;44.54;101267.63;5013214;28;20052;-75
2022/09/23 02:50:39;;;;;;;2.00;1.30;;;;;;;18.00;44.98;101261.72;5024134;28;19913;-76
2022/09/23 02:53:23;;;;;;;;;;;;;;;17.71;46.08;101260.94;5032760;28;20072;-76
2022/09/23 02:56:18;;;;;;;5.07;1.30;;;;;;;17.24;46.30;101257.13;5032608;28;19912;-75
2022/09/23 02:59:04;;;;;;;5.03;0.80;;;;;;;17.06;50.84;101265.66;5032092;28;20036;-75
2022/09/23 03:02:12;;;;;;;1.70;1.08;;;;;;;17.81;49.31;101257.69;5018945;28;20065;-76
2022/09/23 03:05:07;;;;;;;3.72;0.82;;;;;;;18.24;48.25;101262.38;5012211;28;20057;-75
2022/09/23 03:08:28;;;;;;;1.75;0.68;;;;;;;18.55;47.31;101258.88;5029086;28;20056;-76
2022/09/23 03:11:15;;;;;;;2.30;0.80;;;;;;;18.70;46.89;101255.31;5019098;28;20049;-75
2022/09/23 03:14:17;;;;;;;2.83;0.95;;;;;;;18.77;46.53;101257.44;5035093;28;20060;-75
2022/09/23 03:17:09;;;;;;;2.55;1.10;;;;;;;18.76;46.54;101253.88;5032201;28;20052;-76
2022/09/23 03:20:08;;;;;;;1.63;1.10;;;;;;;18.89;46.19;101253.78;5035481;28;20053;-74
2022/09/23 03:22:59;;;;;;;5.30;0.57;;;;;;;18.90;46.21;101241.59;5014364;28;20048;-77
2022/09/23 03:25:47;;;;;;;3.20;1.85;;;;;;;18.94;45.85;101253.50;5011865;28;20421;-77
2022/09/23 03:28:36;;;;;;;1.10;0.70;;;;;;;18.94;45.94;101240.53;5012382;28;20405;-77
2022/09/23 03:31:21;;;;;;;1.92;0.93;;;;;;;18.92;46.04;101242.03;5014884;28;20064;-76
2022/09/23 03:34:12;;;;;;;1.20;0.95;;;;;;;18.83;46.06;101247.75;5032260;28;20048;-77
2022/09/23 03:37:05;;;;;;;4.25;1.33;;;;;;;18.62;44.66;101242.53;5028568;22;20057;-83
2022/09/23 03:39:54;;;;;;;3.00;1.58;;;;;;;18.29;47.10;101240.09;4990847;28;20054;-83
2022/09/23 03:42:40;;;;;;;2.67;1.40;;;;;;;18.48;47.00;101230.34;5014569;28;20436;-83
2022/09/23 03:45:29;;;;;;;1.63;0.63;;;;;;;18.68;46.63;101237.53;5018013;28;20129;-83
2022/09/23 03:48:14;;;;;;;4.45;0.90;;;;;;;18.76;46.25;101234.59;5017579;28;20142;-83
2022/09/23 03:51:21;;;;;;;3.55;1.05;;;;;;;18.79;46.11;101235.84;5017909;28;20401;-83
2022/09/23 03:54:06;;;;;;;1.02;0.65;;;;;;;18.79;45.78;101231.13;4993340;28;20053;-83
2022/09/23 03:56:51;;;;;;;1.40;0.57;;;;;;;18.89;45.83;101229.00;4993554;28;20049;-83
2022/09/23 03:59:36;;;;;;;2.53;1.02;;;;;;;18.92;45.75;101223.53;5001132;28;20058;-83
2022/09/23 04:02:21;;;;;;;2.55;1.10;;;;;;;18.86;45.24;101230.50;5003391;28;20122;-83
2022/09/23 04:05:10;;;;;;;2.15;0.80;;;;;;;18.57;45.04;101226.28;5002337;28;20049;-83
2022/09/23 04:07:55;;;;;;;3.85;0.70;;;;;;;18.35;46.72;101222.16;4984507;28;20045;-83
2022/09/23 04:10:40;;;;;;;1.35;0.85;;;;;;;18.48;46.62;101220.13;4982562;28;20062;-83
2022/09/23 04:13:27;;;;;;;1.42;0.90;;;;;;;18.64;46.22;101217.38;4994881;28;20053;-83
2022/09/23 04:16:11;;;;;;;4.35;1.00;;;;;;;18.40;45.88;101212.81;5018318;28;20069;-83
2022/09/23 04:18:56;;;;;;;;;;;;;;;18.35;46.81;101218.59;5002418;28;20049;-83
2022/09/23 04:21:42;;;;;;;0.73;0.50;;;;;;;18.46;46.72;101216.09;5003767;28;19917;-83
2022/09/23 04:24:27;;;;;;;4.18;1.20;;;;;;;18.33;46.69;101218.97;4999859;28;20041;-83
2022/09/23 04:27:11;;;;;;;;;;;;;;;18.23;46.30;101216.75;5002401;28;20053;-83
2022/09/23 04:29:56;;;;;;;4.75;1.17;;;;;;;18.19;44.85;101213.06;4998058;28;19913;-84
2022/09/23 04:32:41;;;;;;;1.98;1.20;;;;;;;17.63;45.32;101211.56;5001732;28;20045;-83
2022/09/23 04:35:26;;;;;;;10.30;1.50;;;;;;;18.08;48.13;101213.97;5005799;28;20050;-83
2022/09/23 04:38:11;;;;;;;6.95;1.65;;;;;;;18.16;46.38;101210.25;4995611;28;20049;-83
2022/09/23 04:40:56;;;;;;;2.13;1.00;;;;;;;18.28;47.18;101212.94;4996452;28;20053;-83
2022/09/23 04:43:41;;;;;;;5.85;1.17;;;;;;;18.15;45.94;101212.19;5000454;28;20049;-83
2022/09/23 04:46:26;;;;;;;5.65;1.00;;;;;;;18.10;46.91;101211.66;4999722;28;20417;-83
2022/09/23 04:49:11;;;;;;;;;;;;;;;17.90;46.71;101211.53;5000608;28;20046;-83
2022/09/23 04:51:56;;;;;;;1.52;0.93;;;;;;;17.80;46.37;101212.06;5004374;28;19917;-84
2022/09/23 04:54:41;;;;;;;2.67;1.42;;;;;;;17.91;44.16;101215.09;5007366;28;20061;-83
2022/09/23 04:57:26;;;;;;;2.35;1.25;;;;;;;17.88;43.91;101218.53;5006822;28;20099;-82
2022/09/23 05:00:11;;;;;;;3.60;1.48;;;;;;;17.84;43.94;101218.44;4995598;28;20051;-84
2022/09/23 05:02:57;;;;;;;3.75;1.00;;;;;;;17.77;44.30;101211.97;5008076;28;20049;-84
2022/09/23 05:05:42;;;;;;;2.55;1.50;;;;;;;17.76;43.88;101218.63;5011323;28;20053;-83
2022/09/23 05:08:27;;;;;;;;;;;;;;;17.70;44.00;101220.00;4999247;28;20046;-84
2022/09/23 05:11:12;;;;;;;8.60;1.60;;;;;;;17.56;44.56;101217.66;4985790;28;19914;-83
2022/09/23 05:13:57;;;;;;;1.85;0.95;;;;;;;17.44;44.45;101218.47;5006507;28;20409;-82
2022/09/23 05:16:41;;;;;;;4.93;1.65;;;;;;;17.38;44.73;101227.31;5004501;28;20057;-83
2022/09/23 05:19:26;;;;;;;;;;;;;;;17.29;45.12;101224.72;4994888;28;20045;-83
2022/09/23 05:22:11;;;;;;;3.60;1.20;;;;;;;17.20;45.43;101220.50;5010585;28;20312;-83
2022/09/23 05:24:58;;;;;;;2.45;0.85;;;;;;;17.04;45.94;101228.66;5005490;28;20452;-83
2022/09/23 05:27:43;;;;;;;8.20;1.52;;;;;;;17.05;45.94;101227.53;5010035;28;20053;-85
2022/09/23 05:30:28;;;;;;;13.70;1.83;;;;;;;17.01;46.78;101223.88;5004087;28;20045;-84
2022/09/23 05:33:13;;;;;;;;;;;;;;;17.04;46.91;101229.47;5012117;28;20057;-84
2022/09/23 05:35:58;;;;;;;1.98;1.00;;;;;;;17.02;46.96;101219.94;5018666;28;19913;-84
2022/09/23 05:38:43;;;;;;;;;;;;;;;17.07;48.69;101226.00;5028163;28;20044;-85
2022/09/23 05:41:28;;;;;;;1.55;0.80;;;;;;;17.10;49.31;101216.28;5009885;28;19921;-84
2022/09/23 05:44:13;;;;;;;2.42;1.10;;;;;;;17.16;49.73;101225.09;5009677;28;20044;-84
2022/09/23 05:46:58;;;;;;;8.88;0.90;;;;;;;17.24;51.25;101221.41;5011687;28;20049;-83
2022/09/23 05:49:43;;;;;;;;;;;;;;;17.32;52.01;101223.22;5012461;28;20045;-83
2022/09/23 05:52:27;;;;;;;2.38;0.90;;;;;;;17.35;51.66;101220.56;5011493;28;19914;-84
2022/09/23 05:55:13;;;;;;;3.58;0.80;;;;;;;17.30;50.29;101222.78;5006942;28;20045;-84
2022/09/23 05:57:58;;;;;;;2.95;1.75;;;;;;;17.32;49.49;101223.22;5004090;28;20045;-84
2022/09/23 06:00:43;;;;;;;7.93;2.72;;;;;;;17.34;48.10;101218.97;4993364;28;20509;-84
2022/09/23 06:03:28;;;;;;;6.47;4.07;;;;;;;17.33;47.64;101214.63;4991740;28;20053;-85
2022/09/23 06:06:16;;;;;;;9.45;3.50;;;;;;;17.36;47.26;101218.63;4996217;28;20049;-85
2022/09/23 06:09:03;;;;;;;8.30;3.85;;;;;;;17.43;47.00;101218.81;4995463;28;20045;-85
2022/09/23 06:11:49;;;;;;;11.50;4.65;;;;;;;17.49;46.71;101217.44;4999166;28;20049;-86
2022/09/23 06:14:35;;;;;;;12.63;4.65;;;;;;;17.51;46.38;101217.91;4999224;28;20054;-85
2022/09/23 06:17:20;;;;;;;11.68;5.47;;;;;;;17.54;46.36;101214.44;4994793;28;20053;-85
2022/09/23 06:20:05;;;;;;;11.50;3.80;;;;;;;17.57;46.59;101218.44;4992960;28;20058;-85
2022/09/23 06:22:51;;;;;;;6.05;3.50;;;;;;;17.60;46.65;101212.25;4997547;28;20061;-84
2022/09/23 06:25:37;;;;;;;;;;;;;;;17.68;47.85;101223.09;4995312;28;20053;-85
2022/09/23 06:28:21;;;;;;;6.93;2.40;;;;;;;17.69;47.57;101216.47;4988280;28;20297;-84
2022/09/23 06:31:10;;;;;;;17.05;2.65;;;;;;;17.76;47.40;101216.66;4997712;28;20085;-83
2022/09/23 06:33:55;;;;;;;6.90;1.98;;;;;;;17.78;47.25;101219.84;4995435;28;20050;-84
2022/09/23 06:36:43;;;;;;;5.90;2.30;;;;;;;17.86;46.83;101221.66;4984081;28;20050;-83
2022/09/23 06:39:28;;;;;;;5.90;1.77;;;;;;;17.92;46.81;101219.47;4982916;28;20053;-83
2022/09/23 06:42:14;;;;;;;3.95;1.77;;;;;;;17.97;46.54;101215.66;4984875;28;20050;-83
2022/09/23 06:44:59;;;;;;;6.15;1.40;;;;;;;18.07;46.31;101223.38;4982800;28;20127;-83
2022/09/23 06:47:44;;;;;;;3.25;1.27;;;;;;;18.13;46.51;101221.97;4982199;28;20053;-83
2022/09/23 06:50:29;;;;;;;6.40;1.50;;;;;;;18.19;45.40;101221.34;4994136;28;20041;-83
2022/09/23 06:53:15;;;;;;;4.10;1.42;;;;;;;18.26;45.35;101223.47;4999209;28;20075;-83
2022/09/23 06:56:05;;;;;;;4.18;1.30;;;;;;;18.34;44.74;101230.75;5000670;28;20053;-83
2022/09/23 06:58:51;;;;;;;3.47;1.45;;;;;;;18.39;44.58;101222.22;4996608;28;20050;-84
2022/09/23 07:01:36;;;;;;;3.50;1.48;;;;;;;18.43;44.07;101225.91;4981202;28;20050;-87
2022/09/23 07:04:21;;;;;;;43.25;2.75;;;;;;;18.45;43.90;101223.56;4985207;28;20053;-84
2022/09/23 07:07:07;;;;;;;8.02;1.40;;;;;;;18.51;43.38;101219.41;4998835;28;20049;-84
2022/09/23 07:09:51;;;;;;;5.40;1.40;;;;;;;18.58;43.26;101225.13;5000139;28;20069;-84
2022/09/23 07:12:36;;;;;;;5.20;1.65;;;;;;;18.59;43.74;101229.44;5002128;28;20057;-86
2022/09/23 07:15:21;;;;;;;3.72;1.40;;;;;;;18.62;44.86;101222.44;4984914;28;20532;-84
2022/09/23 07:18:05;;;;;;;4.20;1.80;;;;;;;18.60;45.08;101230.25;5000467;28;20144;-84
2022/09/23 07:20:51;;;;;;;;;;;;;;;18.70;44.30;101235.22;5006609;28;20053;-84
2022/09/23 07:23:36;;;;;;;7.73;3.60;;;;;;;18.69;44.17;101237.16;5005971;28;20381;-85
2022/09/23 07:26:21;;;;;;;10.25;3.20;;;;;;;18.76;44.26;101242.06;5001688;28;20799;-85
2022/09/23 07:29:06;;;;;;;9.13;2.50;;;;;;;18.75;44.96;101234.94;5001509;28;20049;-84
2022/09/23 07:31:51;;;;;;;10.20;2.88;;;;;;;18.79;45.20;101242.13;5003432;28;20057;-85
2022/09/23 07:34:36;;;;;;;11.18;1.85;;;;;;;18.78;45.88;101248.03;5001348;28;20118;-86
2022/09/23 07:37:20;;;;;;;8.15;1.70;;;;;;;18.82;46.37;101246.16;5000396;28;20053;-86
2022/09/23 07:40:06;;;;;;;4.57;2.47;;;;;;;18.83;46.56;101247.75;5009373;28;20057;-84
2022/09/23 07:42:50;;;;;;;2.90;1.63;;;;;;;18.86;46.74;101247.03;4992989;28;20521;-85
2022/09/23 07:45:37;;;;;;;4.43;1.40;;;;;;;18.89;47.24;101245.53;5006722;28;20053;-84
2022/09/23 07:48:22;;;;;;;5.35;1.38;;;;;;;18.94;47.71;101242.50;5002108;28;20041;-84
2022/09/23 07:51:11;;;;;;;5.63;1.52;;;;;;;19.00;47.51;101249.31;5006248;28;20533;-84
2022/09/23 07:53:56;;;;;;;1.83;1.33;;;;;;;19.02;47.90;101244.25;4986892;28;20053;-84
2022/09/23 07:56:41;;;;;;;3.90;1.50;;;;;;;19.04;48.30;101244.69;5000006;28;20058;-83
2022/09/23 07:59:26;;;;;;;5.00;2.75;;;;;;;19.07;48.25;101255.78;5004705;28;20053;-82
2022/09/23 08:02:15;;;;;;;;;;;;;;;19.16;48.60;101250.88;5000449;28;20434;-82
2022/09/23 08:05:00;;;;;;;2.40;1.20;;;;;;;19.13;48.03;101256.31;5001541;28;19914;-82
2022/09/23 08:07:44;;;;;;;12.02;1.45;;;;;;;19.16;48.41;101250.06;4993342;28;20065;-82
2022/09/23 08:10:30;;;;;;;7.53;1.48;;;;;;;19.15;47.99;101253.97;4980902;28;20398;-82
2022/09/23 08:13:15;;;;;;;2.63;1.73;;;;;;;19.20;48.55;101251.75;4998773;28;21093;-82
2022/09/23 08:16:00;;;;;;;;;;;;;;;19.26;48.20;101251.47;5014172;28;20096;-84
2022/09/23 08:18:46;;;;;;;2.67;1.58;;;;;;;19.25;47.72;101252.63;5016495;28;19922;-83
2022/09/23 08:21:31;;;;;;;2.70;1.70;;;;;;;19.26;47.29;101245.94;5009163;28;20053;-84
2022/09/23 08:24:18;;;;;;;1.73;1.00;;;;;;;19.31;48.36;101248.41;5010018;28;20053;-83
2022/09/23 08:27:03;;;;;;;4.78;1.67;;;;;;;19.35;47.74;101255.59;5008312;28;20049;-84
2022/09/23 08:29:48;;;;;;;3.63;1.60;;;;;;;19.34;47.28;101248.50;5017174;28;20076;-84
2022/09/23 08:32:32;;;;;;;3.53;1.27;;;;;;;19.40;47.72;101254.53;5011223;28;20044;-85
2022/09/23 08:35:18;;;;;;;2.60;1.13;;;;;;;19.38;46.39;101257.66;5011542;28;20417;-85
2022/09/23 08:38:03;;;;;;;4.00;1.23;;;;;;;19.45;47.04;101252.34;4989009;28;20049;-86
2022/09/23 08:40:49;;;;;;;1.63;1.10;;;;;;;19.47;46.31;101255.50;5009188;28;20621;-85
2022/09/23 08:43:36;;;;;;;6.35;1.33;;;;;;;19.50;45.66;101257.56;5006885;28;20057;-86
2022/09/23 08:46:30;;;;;;;3.90;1.40;;;;;;;19.53;45.59;101254.06;5005376;28;20053;-87
2022/09/23 08:49:24;;;;;;;4.30;1.47;;;;;;;19.51;45.11;101250.06;5005379;28;20050;-85
2022/09/23 08:52:35;;;;;;;3.75;1.70;;;;;;;19.58;44.66;101251.03;4994661;28;20114;-85
2022/09/23 08:55:31;;;;;;;3.45;1.80;;;;;;;19.61;45.67;101250.28;4985317;28;20111;-85
2022/09/23 08:58:33;;;;;;;3.55;1.45;;;;;;;19.69;44.77;101247.69;4988029;28;20053;-85
2022/09/23 09:01:29;;;;;;;7.38;2.33;;;;;;;19.63;45.58;101241.66;4993511;28;20046;-83
2022/09/23 09:04:24;;;;;;;7.55;2.08;;;;;;;19.59;45.23;101238.81;5002608;28;20049;-84
2022/09/23 09:07:14;;;;;;;2.33;1.70;;;;;;;19.63;44.54;101242.44;5002994;28;20041;-82
2022/09/23 09:10:15;;;;;;;1.92;1.30;;;;;;;19.70;46.46;101243.75;5003934;28;20523;-84
2022/09/23 09:13:28;;;;;;;3.00;2.13;;;;;;;19.68;45.30;101246.88;5009521;28;20417;-85
2022/09/23 09:16:29;;;;;;;7.35;2.17;;;;;;;19.70;44.40;101238.25;5027421;28;20049;-84
2022/09/23 09:19:41;;;;;;;4.50;2.08;;;;;;;19.72;45.35;101235.91;4997244;28;20079;-85
2022/09/23 09:22:33;;;;;;;5.45;1.70;;;;;;;19.72;45.73;101230.38;4992005;28;20053;-84
2022/09/23 09:25:36;;;;;;;6.47;2.00;;;;;;;19.74;44.63;101230.81;5007827;28;20071;-85
2022/09/23 09:28:35;;;;;;;4.50;1.95;;;;;;;19.67;44.70;101234.25;4984244;28;20054;-86
2022/09/23 09:31:44;;;;;;;2.85;1.30;;;;;;;19.72;43.42;101219.34;4988635;28;20525;-85
2022/09/23 09:34:43;;;;;;;3.22;1.90;;;;;;;19.74;43.66;101220.59;4983217;28;20050;-85
2022/09/23 09:37:35;;;;;;;1.60;1.20;;;;;;;19.76;43.20;101220.22;5006941;23;20050;-81
2022/09/23 09:40:20;;;;;;;2.22;0.73;;;;;;;19.79;41.48;101219.50;5007925;28;20054;-82
2022/09/23 09:43:06;;;;;;;1.55;1.10;;;;;;;19.88;46.18;101229.13;4998444;28;20049;-81
2022/09/23 09:46:21;;;;;;;5.25;0.60;;;;;;;19.87;40.54;101229.50;4999009;28;20049;-83
2022/09/23 09:49:23;;;;;;;6.30;0.90;;;;;;;19.84;42.18;101221.97;4997337;28;20045;-81
2022/09/23 09:52:13;;;;;;;4.30;1.25;;;;;;;19.79;39.38;101217.53;4990989;28;20418;-82
2022/09/23 09:55:24;;;;;;;2.30;0.88;;;;;;;19.79;38.93;101223.06;4981617;28;20050;-81
2022/09/23 09:58:14;;;;;;;2.05;0.70;;;;;;;19.83;39.04;101217.59;4977399;28;20057;-83
2022/09/23 10:00:59;;;;;;;1.52;0.95;;;;;;;19.87;39.17;101232.25;4979352;28;20053;-82
2022/09/23 10:03:44;;;;;;;2.25;0.77;;;;;;;19.90;40.25;101226.03;4982896;28;20049;-78
2022/09/23 10:06:32;;;;;;;1.48;0.98;;;;;;;19.92;38.06;101226.44;4981829;28;20115;-80
2022/09/23 10:09:18;;;;;;;;;;;;;;;19.98;40.83;101225.78;4985955;28;20065;-77
2022/09/23 10:12:13;;;;;;;;;;;;;;;19.99;38.59;101216.34;4989878;28;19914;-81
2022/09/23 10:14:58;;;;;;;;;;;;;;;20.05;40.48;101214.06;4999240;28;19914;-80
2022/09/23 10:17:42;;;;;;;;;;;;;;;20.06;39.47;101213.69;4987491;28;19914;-76
2022/09/23 10:20:36;;;;;;;;;;;;;;;20.10;39.59;101216.53;4978902;28;20389;-79
2022/09/23 10:23:26;;;;;;;;;;;;;;;20.18;44.39;101214.69;4977122;28;19914;-78
2022/09/23 10:26:11;;;;;;;;;;;;;;;20.19;44.10;101219.84;4979461;28;19914;-78
2022/09/23 10:28:57;;;;;;;;;;;;;;;20.22;44.41;101212.78;4982132;28;19914;-82
2022/09/23 10:31:43;;;;;;;;;;;;;;;20.16;39.37;101209.53;4980236;28;19914;-84
2022/09/23 10:34:28;;;;;;;;;;;;;;;20.22;42.67;101213.56;4981163;28;19914;-78
2022/09/23 10:37:14;;;;;;;;;;;;;;;20.22;40.66;101210.81;4985003;28;19914;-82
2022/09/23 10:46:38;;;;;;;;;;;;;;;20.41;46.13;101210.78;4995057;28;20324;-80
2022/09/23 10:49:29;;;;;;;;;;;;;;;20.40;45.73;101203.66;4997171;28;19913;-80
2022/09/23 10:52:17;;;;;;;;;;;;;;;20.43;44.98;101200.16;4990552;28;19917;-78
2022/09/23 10:55:11;;;;;;;;;;;;;;;20.42;40.63;101206.84;4988945;28;19914;-79
2022/09/23 10:58:04;;;;;;;;;;;;;;;20.51;44.94;101200.28;4992697;28;19913;-81
2022/09/23 11:01:08;;;;;;;;;;;;;;;20.55;39.93;101199.16;4990453;28;19940;-81
2022/09/23 11:04:12;;;;;;;;;;;;;;;20.63;39.28;101195.31;4995165;28;19913;-80
2022/09/23 11:07:06;;;;;;;;;;;;;;;20.78;38.04;101193.56;4994067;28;20293;-78
2022/09/23 11:10:04;;;;;;;;;;;;;;;20.89;37.29;101191.75;4984778;28;19918;-77
2022/09/23 11:12:49;;;;;;;;;;;;;;;20.97;39.06;101187.94;4987780;28;19913;-80
2022/09/23 11:15:52;;;;;;;;;;;;;;;21.11;42.38;101184.56;4984756;28;19913;-79
2022/09/23 11:18:50;;;;;;;;;;;;;;;21.18;42.52;101181.94;5001444;28;19917;-80
2022/09/23 11:21:50;;;;;;;;;;;;;;;21.31;41.12;101175.78;4987545;28;19936;-79
2022/09/23 11:24:47;;;;;;;;;;;;;;;21.43;42.47;101168.41;4996110;28;19913;-79
2022/09/23 11:27:50;;;;;;;;;;;;;;;21.50;40.33;101168.47;5001449;28;19913;-78
2022/09/23 11:30:57;;;;;;;;;;;;;;;21.63;38.94;101153.22;4997698;28;19914;-79
2022/09/23 11:34:00;;;;;;;;;;;;;;;28.71;25.63;101161.72;5002987;28;19914;-76
2022/09/23 11:36:59;;;;;;;3.00;0.90;;;;;;;35.22;16.94;101173.00;4986474;28;20434;-77
2022/09/23 11:39:50;;;;;;;5.13;0.70;;;;;;;37.91;15.39;101175.25;5020807;28;20042;-77
2022/09/23 11:42:52;;;;;;;1.15;0.90;;;;;;;38.15;14.25;101175.13;4995020;28;20046;-78
2022/09/23 11:45:44;;;;;;;6.65;0.93;;;;;;;39.52;13.73;101174.34;4976260;28;20053;-77
2022/09/23 11:48:39;;;;;;;2.90;1.67;;;;;;;39.35;13.72;101170.59;4977590;28;20050;-80
2022/09/23 11:51:30;;;;;;;1.17;0.40;;;;;;;39.07;13.63;101175.19;4975253;28;20406;-77
2022/09/23 11:54:20;;;;;;;1.75;0.50;;;;;;;38.08;15.05;101168.56;4975773;28;20058;-81
2022/09/23 11:57:15;;;;;;;2.85;0.60;;;;;;;37.33;15.25;101161.94;4976359;28;20049;-77
2022/09/23 12:00:02;;;;;;;;;;;;;;;36.17;16.55;101155.50;4976357;28;20050;-78
2022/09/23 12:03:08;;;;;;;1.23;0.95;;;;;;;36.11;13.99;101146.88;4979243;28;19913;-79
2022/09/23 12:06:06;;;;;;;2.03;1.00;;;;;;;36.96;14.60;101150.94;4990004;28;20058;-80
2022/09/23 12:08:57;;;;;;;7.25;0.60;;;;;;;35.97;16.18;101139.06;4985812;28;20049;-78
2022/09/23 12:12:04;;;;;;;4.22;1.08;;;;;;;35.87;16.14;101137.56;4992653;28;20061;-78
2022/09/23 12:15:10;;;;;;;1.75;1.10;;;;;;;34.43;16.81;101131.72;4987684;28;20069;-78
2022/09/23 12:18:20;;;;;;;4.13;1.50;;;;;;;33.40;16.12;101128.25;4987665;28;20050;-78
2022/09/23 12:21:23;;;;;;;3.72;0.80;;;;;;;34.76;16.40;101124.97;4991142;28;20065;-80
2022/09/23 12:24:39;;;;;;;0.85;0.57;;;;;;;35.06;16.43;101125.25;4996370;28;20057;-78
2022/09/23 12:27:44;;;;;;;0.85;0.63;;;;;;;31.50;20.53;101124.41;4992009;28;20049;-79
2022/09/23 12:30:32;;;;;;;1.10;0.50;;;;;;;30.20;22.17;101110.84;4991395;28;20038;-78
2022/09/23 12:33:27;;;;;;;1.02;0.50;;;;;;;28.85;24.13;101108.28;4996853;28;20045;-81
2022/09/23 12:36:12;;;;;;;2.33;0.65;;;;;;;27.86;25.35;101107.25;4988663;28;20045;-78
2022/09/23 12:39:13;;;;;;;9.18;1.23;;;;;;;27.39;25.86;101102.75;4987295;28;20046;-77
2022/09/23 12:42:14;;;;;;;23.17;1.73;;;;;;;27.33;25.12;101091.25;4992545;28;20145;-82
2022/09/23 12:45:32;;;;;;;4.18;1.77;;;;;;;27.12;25.18;101095.13;4992269;28;20049;-81
2022/09/23 12:48:17;;;;;;;2.05;1.00;;;;;;;27.19;26.23;101095.03;4990158;28;20057;-82
2022/09/23 12:51:01;;;;;;;18.20;2.97;;;;;;;27.18;26.08;101095.47;5009824;28;20460;-85
2022/09/23 12:53:46;;;;;;;9.48;1.02;;;;;;;27.08;26.57;101085.22;4991703;28;20053;-82
2022/09/23 12:56:37;;;;;;;1.73;1.00;;;;;;;27.31;25.39;101076.16;4988649;28;20050;-83
2022/09/23 12:59:52;;;;;;;5.70;1.88;;;;;;;26.68;24.55;101075.72;4993619;28;20053;-81
2022/09/23 13:02:40;;;;;;;3.90;2.25;;;;;;;26.21;27.21;101074.63;4983801;28;20042;-86
2022/09/23 13:08:28;;;;;;;2.10;1.30;;;;;;;26.29;26.48;101059.44;4979253;28;20118;-85
2022/09/23 13:11:25;;;;;;;4.93;1.58;;;;;;;26.14;26.95;101058.75;5000176;28;20045;-82
2022/09/23 13:14:14;;;;;;;1.15;1.02;;;;;;;26.03;26.70;101049.69;4994482;28;20051;-82
2022/09/23 13:16:59;;;;;;;3.92;1.45;;;;;;;26.06;27.10;101050.88;4994054;28;20050;-81
2022/09/23 13:19:45;;;;;;;3.03;1.80;;;;;;;25.48;26.37;101039.38;4997482;28;20050;-81
2022/09/23 13:22:53;;;;;;;5.60;2.28;;;;;;;25.31;26.99;101042.28;4993966;28;20054;-79
2022/09/23 13:25:41;;;;;;;1.98;1.77;;;;;;;25.74;26.82;101048.38;4992878;28;20050;-81
2022/09/23 13:28:26;;;;;;;5.93;2.30;;;;;;;25.57;26.22;101038.94;4976859;28;20050;-83
2022/09/23 13:31:15;;;;;;;2.80;1.40;;;;;;;25.36;27.24;101027.91;4978274;28;20041;-80
2022/09/23 13:34:04;;;;;;;3.22;1.50;;;;;;;25.36;27.67;101034.28;4986600;28;20780;-82
2022/09/23 13:36:49;;;;;;;2.47;1.60;;;;;;;25.12;28.18;101035.25;4984979;28;20053;-81